Time;durP1;ratioP1;P1;durP2;ratioP2;P2;SDS_P1;SDS_P2;PMS_P1;PMS_P2;Temp;Humidity;BMP_temperature;BMP_pressure;BME280_temperature;BME280_humidity;BME280_pressure;Samples;Min_cycle;Max_cycle;Signal;HPM_P1;HPM_P2
2021/09/24 00:00:35;;;;;;;9.90;5.18;;;13.20;99.90;;;;;;5037006;28;20433;-80
2021/09/24 00:03:01;;;;;;;9.88;5.15;;;;;;;;;;5032855;28;20033;-78
2021/09/24 00:05:27;;;;;;;7.78;5.20;;;;;;;;;;5043747;28;20120;-81
2021/09/24 00:07:53;;;;;;;11.73;6.20;;;;;;;;;;5044837;28;20491;-79
2021/09/24 00:10:20;;;;;;;8.50;5.40;;;13.10;99.90;;;;;;5044052;28;20438;-81
2021/09/24 00:12:46;;;;;;;9.20;5.80;;;;;;;;;;5042059;28;20064;-80
2021/09/24 00:15:16;;;;;;;10.70;5.88;;;13.10;99.90;;;;;;5042563;28;20045;-77
2021/09/24 00:17:42;;;;;;;12.73;6.00;;;;;;;;;;5042956;28;20033;-80
2021/09/24 00:20:09;;;;;;;9.13;5.55;;;13.00;99.90;;;;;;5042019;28;20021;-80
2021/09/24 00:22:35;;;;;;;9.10;6.28;;;;;;;;;;5037288;28;20071;-82
2021/09/24 00:25:01;;;;;;;11.18;5.70;;;;;;;;;;5039660;28;20115;-81
2021/09/24 00:27:27;;;;;;;9.75;5.70;;;;;;;;;;5041010;28;20037;-80
2021/09/24 00:29:53;;;;;;;8.85;5.70;;;;;;;;;;5042188;28;20108;-78
2021/09/24 00:32:22;;;;;;;9.45;5.38;;;;;;;;;;5042218;28;20029;-78
2021/09/24 00:34:50;;;;;;;10.32;6.22;;;13.00;99.90;;;;;;5040622;28;20391;-78
2021/09/24 00:37:17;;;;;;;8.35;5.20;;;;;;;;;;5040013;28;20104;-79
2021/09/24 00:39:43;;;;;;;11.15;5.63;;;;;;;;;;5042548;28;20127;-80
2021/09/24 00:42:09;;;;;;;14.60;5.60;;;;;;;;;;5044481;28;20029;-80
2021/09/24 00:44:49;;;;;;;11.40;5.72;;;12.80;99.90;;;;;;5041222;28;20025;-79
2021/09/24 00:47:15;;;;;;;;;;;12.80;99.90;;;;;;5042705;28;20056;-79
2021/09/24 00:49:42;;;;;;;12.10;5.70;;;;;;;;;;5041913;28;20496;-83
2021/09/24 00:52:08;;;;;;;9.60;5.65;;;;;;;;;;5035917;28;20032;-78
2021/09/24 00:54:34;;;;;;;8.38;5.72;;;12.80;99.90;;;;;;5040854;28;20025;-81
2021/09/24 00:57:01;;;;;;;7.68;5.07;;;12.80;99.90;;;;;;5043873;28;20029;-82
2021/09/24 00:59:28;;;;;;;8.65;5.53;;;;;;;;;;5040824;28;20038;-81
2021/09/24 01:01:55;;;;;;;8.75;4.55;;;12.80;99.90;;;;;;5041017;28;21626;-80
2021/09/24 01:04:22;;;;;;;9.57;5.15;;;;;;;;;;5042253;28;20041;-78
2021/09/24 01:06:48;;;;;;;8.75;5.22;;;;;;;;;;5036890;28;20037;-81
2021/09/24 01:09:14;;;;;;;9.13;5.82;;;;;;;;;;5040619;28;20017;-80
2021/09/24 01:11:40;;;;;;;10.65;5.57;;;;;;;;;;5040412;28;20026;-78
2021/09/24 01:14:06;;;;;;;8.48;5.20;;;;;;;;;;5042896;28;20102;-79
2021/09/24 01:16:32;;;;;;;8.27;5.57;;;;;;;;;;5048221;28;20025;-80
2021/09/24 01:18:58;;;;;;;11.02;5.75;;;12.40;99.90;;;;;;5047657;28;20025;-79
2021/09/24 01:21:24;;;;;;;9.15;5.50;;;;;;;;;;5041428;28;20086;-80
2021/09/24 01:23:50;;;;;;;9.75;5.88;;;;;;;;;;5043010;28;20475;-78
2021/09/24 01:26:16;;;;;;;9.70;5.07;;;;;;;;;;5045653;28;20052;-81
2021/09/24 01:28:46;;;;;;;9.55;5.57;;;;;;;;;;5043290;28;20029;-77
2021/09/24 01:31:13;;;;;;;7.90;5.38;;;12.50;99.90;;;;;;5041140;28;20017;-77
2021/09/24 01:33:47;;;;;;;9.45;4.90;;;12.50;99.90;;;;;;5044624;28;20084;-77
2021/09/24 01:36:12;;;;;;;7.97;5.00;;;;;;;;;;5038086;28;20533;-79
2021/09/24 01:38:39;;;;;;;7.85;5.00;;;;;;;;;;5048036;28;20057;-79
2021/09/24 01:41:05;;;;;;;7.50;4.65;;;12.40;99.90;;;;;;5040339;28;20021;-78
2021/09/24 01:43:33;;;;;;;7.32;4.80;;;12.40;99.90;;;;;;5043771;28;20509;-78
2021/09/24 01:45:59;;;;;;;8.50;5.43;;;;;;;;;;5043119;28;20037;-78
2021/09/24 01:48:25;;;;;;;8.60;5.15;;;;;;;;;;5043078;28;20506;-80
2021/09/24 01:50:51;;;;;;;9.85;5.03;;;;;;;;;;5046704;28;20029;-79
2021/09/24 01:53:17;;;;;;;8.82;5.22;;;;;;;;;;5045597;28;20056;-81
2021/09/24 01:55:43;;;;;;;9.30;5.22;;;;;;;;;;5036359;28;20115;-80
2021/09/24 01:58:09;;;;;;;9.82;5.28;;;;;;;;;;5042496;28;20133;-80
2021/09/24 02:00:35;;;;;;;10.00;5.30;;;;;;;;;;5042620;28;20025;-79
2021/09/24 02:03:01;;;;;;;8.93;5.35;;;;;;;;;;5050692;28;20021;-79
2021/09/24 02:05:27;;;;;;;10.25;5.03;;;;;;;;;;5043567;28;20097;-76
2021/09/24 02:07:53;;;;;;;11.18;5.50;;;;;;;;;;5042626;28;20017;-78
2021/09/24 02:10:19;;;;;;;10.18;5.63;;;;;;;;;;5045221;28;20040;-79
2021/09/24 02:12:45;;;;;;;10.88;6.10;;;;;;;;;;5046217;28;20055;-79
2021/09/24 02:15:12;;;;;;;9.88;5.88;;;;;;;;;;5039665;28;20470;-79
2021/09/24 02:17:43;;;;;;;15.93;6.93;;;12.20;99.90;;;;;;5041926;28;20119;-79
2021/09/24 02:20:10;;;;;;;10.10;5.72;;;12.10;99.90;;;;;;5043094;28;20033;-81
2021/09/24 02:22:36;;;;;;;11.32;6.05;;;;;;;;;;5044749;28;20549;-77
2021/09/24 02:25:02;;;;;;;12.20;7.07;;;;;;;;;;5043390;28;20394;-78
2021/09/24 02:27:28;;;;;;;10.93;5.97;;;;;;;;;;5038734;28;20032;-80
2021/09/24 02:29:54;;;;;;;9.02;5.30;;;;;;;;;;5041488;28;20017;-79
2021/09/24 02:32:20;;;;;;;8.15;5.13;;;;;;;;;;5048147;28;20396;-81
2021/09/24 02:34:46;;;;;;;7.93;4.93;;;;;;;;;;5043657;28;20033;-79
2021/09/24 02:37:12;;;;;;;8.43;4.90;;;;;;;;;;5041256;28;20017;-83
2021/09/24 02:39:38;;;;;;;7.70;5.13;;;;;;;;;;5042284;28;20077;-79
2021/09/24 02:42:04;;;;;;;8.80;5.30;;;;;;;;;;5037018;28;20044;-81
2021/09/24 02:44:30;;;;;;;7.75;4.88;;;;;;;;;;5042573;28;20079;-80
2021/09/24 02:46:56;;;;;;;12.00;5.18;;;;;;;;;;5042837;28;20037;-78
2021/09/24 02:49:22;;;;;;;15.77;4.97;;;;;;;;;;5047653;28;20032;-81
2021/09/24 02:51:48;;;;;;;8.88;5.60;;;;;;;;;;5043190;28;20027;-82
2021/09/24 02:54:14;;;;;;;9.07;5.10;;;;;;;;;;5040395;28;20029;-77
2021/09/24 02:56:40;;;;;;;8.73;5.00;;;;;;;;;;5044049;28;20279;-81
2021/09/24 02:59:06;;;;;;;9.50;5.63;;;;;;;;;;5044464;28;20521;-79
2021/09/24 03:01:34;;;;;;;12.02;5.53;;;;;;;;;;5039923;28;20025;-78
2021/09/24 03:04:00;;;;;;;11.02;5.40;;;;;;;;;;5041302;28;20033;-79
2021/09/24 03:06:26;;;;;;;10.20;5.82;;;;;;;;;;5040690;28;20123;-78
2021/09/24 03:08:52;;;;;;;9.10;5.35;;;;;;;;;;5040036;28;20390;-80
2021/09/24 03:11:18;;;;;;;9.80;5.45;;;;;;;;;;5044274;28;20029;-78
2021/09/24 03:13:44;;;;;;;8.60;5.22;;;;;;;;;;5042092;28;20536;-77
2021/09/24 03:16:11;;;;;;;9.18;5.30;;;11.80;99.90;;;;;;5041560;28;20063;-79
2021/09/24 03:18:37;;;;;;;9.73;6.03;;;;;;;;;;5038272;28;20048;-77
2021/09/24 03:21:03;;;;;;;11.18;5.70;;;;;;;;;;5043797;28;20071;-79
2021/09/24 03:23:29;;;;;;;10.52;5.70;;;;;;;;;;5043001;28;20430;-78
2021/09/24 03:25:55;;;;;;;11.13;5.82;;;;;;;;;;5044521;28;20478;-81
2021/09/24 03:28:21;;;;;;;13.20;5.85;;;;;;;;;;5045967;28;20057;-78
2021/09/24 03:30:47;;;;;;;13.07;6.43;;;;;;;;;;5039686;28;20029;-79
2021/09/24 03:33:13;;;;;;;9.35;5.35;;;;;;;;;;5042746;28;20100;-79
2021/09/24 03:35:39;;;;;;;11.15;6.03;;;;;;;;;;5043981;28;20079;-80
2021/09/24 03:38:05;;;;;;;10.90;7.00;;;;;;;;;;5037601;28;20486;-79
2021/09/24 03:40:31;;;;;;;12.13;6.55;;;;;;;;;;5041917;28;20033;-79
2021/09/24 03:42:58;;;;;;;10.43;6.65;;;;;;;;;;5043753;28;20036;-78
2021/09/24 03:45:24;;;;;;;13.70;6.15;;;;;;;;;;5042325;28;20239;-80
2021/09/24 03:47:50;;;;;;;10.30;6.22;;;;;;;;;;5043156;28;20021;-77
2021/09/24 03:50:16;;;;;;;10.68;6.20;;;;;;;;;;5041945;28;20044;-77
2021/09/24 03:52:43;;;;;;;9.75;6.10;;;;;;;;;;5046872;28;20040;-78
2021/09/24 03:55:09;;;;;;;13.32;6.20;;;;;;;;;;5045732;28;20394;-79
2021/09/24 03:57:35;;;;;;;10.20;5.78;;;;;;;;;;5043211;28;20021;-81
2021/09/24 04:00:01;;;;;;;10.80;6.43;;;;;;;;;;5042695;28;20043;-79
2021/09/24 04:02:27;;;;;;;10.40;6.07;;;;;;;;;;5046116;28;20032;-77
2021/09/24 04:04:53;;;;;;;11.15;6.10;;;;;;;;;;5047018;28;20486;-81
2021/09/24 04:07:19;;;;;;;11.75;6.32;;;;;;;;;;5043049;28;20021;-79
2021/09/24 04:09:45;;;;;;;12.50;6.43;;;;;;;;;;5049985;28;20086;-79
2021/09/24 04:12:12;;;;;;;12.45;6.20;;;;;;;;;;5049551;28;20032;-80
2021/09/24 04:14:38;;;;;;;10.73;6.47;;;;;;;;;;5045253;28;20502;-79
2021/09/24 04:17:04;;;;;;;12.02;6.25;;;;;;;;;;5044915;28;20072;-79
2021/09/24 04:19:30;;;;;;;11.05;6.30;;;;;;;;;;5049112;28;20025;-79
2021/09/24 04:21:56;;;;;;;9.77;6.00;;;;;;;;;;5048225;28;20086;-81
2021/09/24 04:24:22;;;;;;;12.48;6.07;;;;;;;;;;5045002;28;20390;-80
2021/09/24 04:26:48;;;;;;;11.68;6.55;;;;;;;;;;5042336;28;20029;-81
2021/09/24 04:29:14;;;;;;;9.95;5.75;;;;;;;;;;5044294;28;20547;-81
2021/09/24 04:31:40;;;;;;;11.45;6.38;;;;;;;;;;5043605;28;20041;-80
2021/09/24 04:34:08;;;;;;;8.30;5.57;;;;;;;;;;5041553;28;20021;-79
2021/09/24 04:36:34;;;;;;;10.10;6.10;;;;;;;;;;5046688;28;20075;-81
2021/09/24 04:39:02;;;;;;;12.93;6.18;;;;;;;;;;5047471;28;20048;-80
2021/09/24 04:41:28;;;;;;;11.60;6.18;;;;;;;;;;5043678;28;20032;-79
2021/09/24 04:43:54;;;;;;;10.45;6.07;;;;;;;;;;5049977;28;20032;-79
2021/09/24 04:46:20;;;;;;;11.10;6.20;;;;;;;;;;5050529;28;20026;-78
2021/09/24 04:48:46;;;;;;;9.27;5.93;;;;;;;;;;5045284;28;20025;-79
2021/09/24 04:51:12;;;;;;;10.63;6.05;;;11.50;99.90;;;;;;5048126;28;20029;-79
2021/09/24 04:53:38;;;;;;;11.65;6.32;;;;;;;;;;5047390;28;20029;-78
2021/09/24 04:56:04;;;;;;;11.98;6.53;;;;;;;;;;5048286;28;20041;-80
2021/09/24 04:58:30;;;;;;;15.63;7.03;;;;;;;;;;5042629;28;20513;-79
2021/09/24 05:00:56;;;;;;;13.48;6.90;;;;;;;;;;5039365;28;20037;-78
2021/09/24 05:03:22;;;;;;;12.35;6.40;;;;;;;;;;5036755;28;20037;-78
2021/09/24 05:05:48;;;;;;;20.45;6.35;;;;;;;;;;5039042;28;20029;-79
2021/09/24 05:08:14;;;;;;;15.65;6.47;;;;;;;;;;5039821;28;20026;-84
2021/09/24 05:10:40;;;;;;;12.85;6.85;;;;;;;;;;5038111;28;20021;-78
2021/09/24 05:13:06;;;;;;;12.27;6.85;;;;;;;;;;5038395;28;20040;-78
2021/09/24 05:15:33;;;;;;;12.05;6.93;;;11.30;99.90;;;;;;5040376;28;20029;-79
2021/09/24 05:17:59;;;;;;;11.57;6.93;;;;;;;;;;5027565;28;20025;-79
2021/09/24 05:20:26;;;;;;;13.73;7.32;;;;;;;;;;5047311;28;20127;-78
2021/09/24 05:22:52;;;;;;;11.90;6.88;;;;;;;;;;5039076;28;20234;-79
2021/09/24 05:25:19;;;;;;;10.90;6.25;;;;;;;;;;5034130;28;20071;-79
2021/09/24 05:27:45;;;;;;;11.27;6.45;;;;;;;;;;5032956;28;20037;-80
2021/09/24 05:30:11;;;;;;;11.65;6.30;;;;;;;;;;5036181;28;20076;-77
2021/09/24 05:32:37;;;;;;;13.52;6.95;;;;;;;;;;5039129;28;20029;-77
2021/09/24 05:35:03;;;;;;;14.07;6.82;;;;;;;;;;5034607;28;20049;-79
2021/09/24 05:37:30;;;;;;;14.82;7.20;;;11.20;99.90;;;;;;5030657;28;20442;-77
2021/09/24 05:39:56;;;;;;;13.55;6.82;;;;;;;;;;5034571;28;20078;-76
2021/09/24 05:42:22;;;;;;;14.73;6.90;;;;;;;;;;5038354;28;20029;-78
2021/09/24 05:44:48;;;;;;;15.70;7.47;;;;;;;;;;5043117;28;20057;-79
2021/09/24 05:47:14;;;;;;;17.27;7.30;;;11.30;99.90;;;;;;5029656;28;20721;-78
2021/09/24 05:49:40;;;;;;;14.68;8.38;;;;;;;;;;5031927;28;20057;-78
2021/09/24 05:52:06;;;;;;;12.93;6.60;;;;;;;;;;5030526;28;20546;-79
2021/09/24 05:54:32;;;;;;;13.18;7.22;;;;;;;;;;5036745;28;20051;-77
2021/09/24 05:56:58;;;;;;;15.27;7.30;;;11.40;99.90;;;;;;5031121;28;20026;-78
2021/09/24 05:59:24;;;;;;;17.40;7.60;;;;;;;;;;5035061;28;20044;-76
2021/09/24 06:01:50;;;;;;;12.32;6.93;;;;;;;;;;5035559;28;20032;-78
2021/09/24 06:04:18;;;;;;;18.75;8.15;;;;;;;;;;5026466;28;20033;-76
2021/09/24 06:06:44;;;;;;;14.23;7.68;;;;;;;;;;5029032;28;20220;-78
2021/09/24 06:09:10;;;;;;;17.25;7.82;;;;;;;;;;5037188;28;20029;-78
2021/09/24 06:11:36;;;;;;;16.77;8.02;;;;;;;;;;5037442;28;20033;-78
2021/09/24 06:14:02;;;;;;;17.65;7.82;;;;;;;;;;5027763;28;20033;-78
2021/09/24 06:16:29;;;;;;;17.25;8.13;;;;;;;;;;5029986;28;20039;-76
2021/09/24 06:18:55;;;;;;;17.10;7.60;;;;;;;;;;5036638;28;20048;-79
2021/09/24 06:21:21;;;;;;;14.43;7.28;;;;;;;;;;5035840;28;20068;-78
2021/09/24 06:23:47;;;;;;;13.07;7.40;;;;;;;;;;5035761;28;20482;-81
2021/09/24 06:26:13;;;;;;;16.15;7.13;;;11.60;99.90;;;;;;5042425;28;20037;-78
2021/09/24 06:28:40;;;;;;;14.05;7.47;;;;;;;;;;5046515;28;20059;-82
2021/09/24 06:31:06;;;;;;;14.43;7.47;;;;;;;;;;5038207;28;20104;-78
2021/09/24 06:33:32;;;;;;;13.18;6.75;;;;;;;;;;5033946;28;20031;-79
2021/09/24 06:35:58;;;;;;;13.07;7.75;;;;;;;;;;5037696;28;20032;-78
2021/09/24 06:38:25;;;;;;;17.10;8.55;;;;;;;;;;5040457;28;20034;-79
2021/09/24 06:40:51;;;;;;;13.10;7.07;;;;;;;;;;5047447;28;20028;-77
2021/09/24 06:43:17;;;;;;;17.20;7.68;;;;;;;;;;5047964;28;20032;-76
2021/09/24 06:45:44;;;;;;;11.57;7.50;;;;;;;;;;5043693;28;20033;-80
2021/09/24 06:48:10;;;;;;;18.00;7.93;;;;;;;;;;5043984;28;20417;-77
2021/09/24 06:50:37;;;;;;;17.98;8.40;;;12.40;99.90;;;;;;5041029;28;20119;-79
2021/09/24 06:53:03;;;;;;;14.80;7.13;;;;;;;;;;5037625;28;20030;-79
2021/09/24 06:55:29;;;;;;;21.83;7.80;;;12.40;99.90;;;;;;5040788;28;20037;-76
2021/09/24 06:57:56;;;;;;;18.25;8.15;;;12.40;99.90;;;;;;5040851;28;20128;-79
2021/09/24 07:00:22;;;;;;;10.40;6.55;;;11.70;99.90;;;;;;5038452;28;20097;-77
2021/09/24 07:02:48;;;;;;;15.13;6.53;;;;;;;;;;5036307;28;20110;-78
2021/09/24 07:05:14;;;;;;;15.75;6.63;;;;;;;;;;5034927;28;20037;-78
2021/09/24 07:07:45;;;;;;;12.18;7.22;;;;;;;;;;5040703;28;20029;-78
2021/09/24 07:10:11;;;;;;;18.05;7.32;;;12.90;99.90;;;;;;5032975;28;20105;-78
2021/09/24 07:12:37;;;;;;;18.27;7.45;;;;;;;;;;5040424;28;20060;-78
2021/09/24 07:15:04;;;;;;;16.45;7.13;;;13.00;99.90;;;;;;5031946;28;20041;-78
2021/09/24 07:17:30;;;;;;;15.43;7.43;;;;;;;;;;5038220;28;20268;-78
2021/09/24 07:19:56;;;;;;;11.55;6.60;;;;;;;;;;5039158;28;20025;-79
2021/09/24 07:22:23;;;;;;;16.70;8.20;;;;;;;;;;5042650;28;20437;-77
2021/09/24 07:24:50;;;;;;;12.75;6.72;;;;;;;;;;5037604;28;20025;-81
2021/09/24 07:27:16;;;;;;;13.23;6.38;;;;;;;;;;5039320;28;20090;-78
2021/09/24 07:29:42;;;;;;;14.70;7.00;;;;;;;;;;5032853;28;20669;-78
2021/09/24 07:32:08;;;;;;;12.00;7.53;;;;;;;;;;5034479;28;20033;-79
2021/09/24 07:34:34;;;;;;;10.40;6.88;;;;;;;;;;5035540;28;20033;-78
2021/09/24 07:37:00;;;;;;;11.75;6.63;;;;;;;;;;5036065;28;20024;-77
2021/09/24 07:39:26;;;;;;;15.88;7.22;;;;;;;;;;5041459;28;20514;-78
2021/09/24 07:41:52;;;;;;;17.35;7.65;;;;;;;;;;5035790;28;20036;-79
2021/09/24 07:44:18;;;;;;;14.88;6.55;;;;;;;;;;5039222;28;20029;-78
2021/09/24 07:46:46;;;;;;;16.45;7.07;;;;;;;;;;5043308;28;20120;-78
2021/09/24 07:49:12;;;;;;;16.23;7.60;;;;;;;;;;5041602;28;20021;-78
2021/09/24 07:51:38;;;;;;;14.02;7.30;;;;;;;;;;5037121;28;20029;-79
2021/09/24 07:54:04;;;;;;;16.52;7.43;;;;;;;;;;5036855;28;20025;-79
2021/09/24 07:56:30;;;;;;;14.50;7.47;;;;;;;;;;5037687;28;20048;-78
2021/09/24 07:58:56;;;;;;;14.95;7.85;;;;;;;;;;5033713;28;20410;-77
2021/09/24 08:01:25;;;;;;;16.67;6.88;;;;;;;;;;5037418;28;20368;-79
2021/09/24 08:03:51;;;;;;;15.43;7.78;;;;;;;;;;5041115;28;20041;-78
2021/09/24 08:06:17;;;;;;;15.15;7.32;;;;;;;;;;5035107;28;20033;-80
2021/09/24 08:08:43;;;;;;;12.50;6.88;;;;;;;;;;5035712;28;20044;-81
2021/09/24 08:11:10;;;;;;;14.73;6.63;;;;;;;;;;5037238;28;20055;-76
2021/09/24 08:13:36;;;;;;;14.07;6.80;;;;;;;;;;5040115;28;20021;-78
2021/09/24 08:16:02;;;;;;;12.38;6.85;;;;;;;;;;5032592;28;20025;-76
2021/09/24 08:18:28;;;;;;;14.82;6.85;;;;;;;;;;5039537;28;20030;-79
2021/09/24 08:20:54;;;;;;;12.75;7.13;;;;;;;;;;5034900;28;20026;-79
2021/09/24 08:23:20;;;;;;;12.77;5.70;;;;;;;;;;5034383;28;20090;-79
2021/09/24 08:25:46;;;;;;;14.90;7.75;;;;;;;;;;5034687;28;20053;-77
2021/09/24 08:28:13;;;;;;;15.13;7.25;;;;;;;;;;5037465;28;20585;-78
2021/09/24 08:30:39;;;;;;;11.80;6.97;;;;;;;;;;5044576;28;20195;-79
2021/09/24 08:33:05;;;;;;;11.57;6.13;;;;;;;;;;5036901;28;20612;-77
2021/09/24 08:35:31;;;;;;;12.50;7.03;;;;;;;;;;5037819;28;20037;-78
2021/09/24 08:37:57;;;;;;;11.73;6.50;;;;;;;;;;5040656;28;20083;-76
2021/09/24 08:40:27;;;;;;;13.38;6.18;;;16.20;99.90;;;;;;5045699;28;20052;-78
2021/09/24 08:42:53;;;;;;;19.88;8.88;;;;;;;;;;5046165;28;20027;-78
2021/09/24 08:45:28;;;;;;;12.55;7.28;;;16.60;99.90;;;;;;5044524;28;20029;-79
2021/09/24 08:48:02;;;;;;;18.48;7.65;;;16.60;99.90;;;;;;5044535;28;20104;-79
2021/09/24 08:50:30;;;;;;;12.27;6.63;;;16.80;99.90;;;;;;5052133;28;20056;-79
2021/09/24 08:52:56;;;;;;;13.57;5.95;;;17.00;99.90;;;;;;5047172;28;20021;-75
2021/09/24 08:55:22;;;;;;;9.88;6.18;;;;;;;;;;5047247;28;20135;-78
2021/09/24 08:57:48;;;;;;;10.90;5.78;;;16.90;99.90;;;;;;5049677;28;20060;-78
2021/09/24 09:00:16;;;;;;;12.10;6.60;;;17.00;99.90;;;;;;5051255;28;20045;-76
2021/09/24 09:02:58;;;;;;;11.80;6.40;;;17.20;99.90;;;;;;5040938;28;20037;-78
2021/09/24 09:05:26;;;;;;;9.23;5.93;;;17.20;99.90;;;;;;5041979;28;20025;-78
2021/09/24 09:08:05;;;;;;;18.90;7.75;;;17.40;99.90;;;;;;5049202;28;20440;-76
2021/09/24 09:10:59;;;;;;;12.65;7.07;;;17.30;99.90;;;;;;5042434;28;20033;-77
2021/09/24 09:13:55;;;;;;;11.88;5.43;;;17.60;99.90;;;;;;5040550;28;20068;-77
2021/09/24 09:16:28;;;;;;;9.65;5.90;;;17.90;99.80;;;;;;5039270;28;20094;-78
2021/09/24 09:19:11;;;;;;;10.23;5.85;;;;;;;;;;5039859;28;20025;-76
2021/09/24 09:21:40;;;;;;;12.85;5.70;;;15.70;99.00;;;;;;5047447;28;20120;-78
2021/09/24 09:24:27;;;;;;;10.20;5.75;;;18.00;99.70;;;;;;5040682;28;20037;-77
2021/09/24 09:27:16;;;;;;;10.77;6.43;;;18.10;99.30;;;;;;5036164;28;20025;-77
2021/09/24 09:30:01;;;;;;;10.60;5.53;;;18.20;99.40;;;;;;5036815;28;20030;-79
2021/09/24 09:32:27;;;;;;;11.15;5.03;;;;;;;;;;5045455;28;20059;-77
2021/09/24 09:34:53;;;;;;;12.20;4.57;;;;;;;;;;5037660;28;20021;-78
2021/09/24 09:37:20;;;;;;;11.52;5.47;;;18.70;99.00;;;;;;5037964;28;20056;-77
2021/09/24 09:40:05;;;;;;;12.02;5.07;;;18.90;98.50;;;;;;5043998;28;20048;-78
2021/09/24 09:42:36;;;;;;;8.52;5.15;;;19.00;98.30;;;;;;5039577;28;20363;-76
2021/09/24 09:45:03;;;;;;;8.40;4.45;;;19.10;98.20;;;;;;5038972;28;20025;-78
2021/09/24 09:47:32;;;;;;;11.73;4.78;;;19.30;98.20;;;;;;5041761;28;20029;-78
2021/09/24 09:50:16;;;;;;;8.20;4.57;;;19.30;99.30;;;;;;5047045;28;20026;-77
2021/09/24 09:53:03;;;;;;;9.15;4.57;;;19.50;97.50;;;;;;5045232;28;20040;-78
2021/09/24 09:55:33;;;;;;;8.32;4.93;;;20.00;99.90;;;;;;5037159;28;20021;-77
2021/09/24 09:58:02;;;;;;;27.85;10.07;;;19.80;99.60;;;;;;5033119;28;20483;-77
2021/09/24 10:00:31;;;;;;;13.30;5.45;;;19.90;96.50;;;;;;5041392;28;20040;-77
2021/09/24 10:03:10;;;;;;;7.93;5.20;;;19.90;96.70;;;;;;5041885;28;20030;-76
2021/09/24 10:05:36;;;;;;;9.27;4.90;;;;;;;;;;5042615;28;20689;-76
2021/09/24 10:08:20;;;;;;;11.32;5.45;;;19.90;96.70;;;;;;5041445;28;20140;-78
2021/09/24 10:11:00;;;;;;;12.13;5.50;;;19.90;96.30;;;;;;5038950;28;20084;-78
2021/09/24 10:13:30;;;;;;;12.55;5.95;;;20.00;96.10;;;;;;5044737;28;20095;-78
2021/09/24 10:15:56;;;;;;;9.35;4.78;;;;;;;;;;5039409;28;20048;-77
2021/09/24 10:18:22;;;;;;;8.70;5.43;;;;;;;;;;5040376;28;20043;-78
2021/09/24 10:20:48;;;;;;;9.38;5.00;;;;;;;;;;5042833;28;20033;-78
2021/09/24 10:23:15;;;;;;;9.70;6.03;;;20.50;94.90;;;;;;5046067;28;20513;-78
2021/09/24 10:25:44;;;;;;;7.15;4.47;;;20.50;95.00;;;;;;5039402;28;20044;-78
2021/09/24 10:28:11;;;;;;;6.32;4.47;;;20.70;94.90;;;;;;5044718;28;20040;-78
2021/09/24 10:30:38;;;;;;;7.68;4.68;;;;;;;;;;5043178;28;20029;-79
2021/09/24 10:33:13;;;;;;;7.32;5.00;;;21.00;96.10;;;;;;5038140;28;20029;-77
2021/09/24 10:35:57;;;;;;;7.70;4.05;;;;;;;;;;5039914;28;20560;-78
2021/09/24 10:38:25;;;;;;;6.60;4.32;;;20.80;94.40;;;;;;5040896;28;20025;-78
2021/09/24 10:41:07;;;;;;;7.75;4.50;;;20.70;94.70;;;;;;5042060;28;20064;-79
2021/09/24 10:43:47;;;;;;;6.53;4.40;;;20.50;94.10;;;;;;5039148;28;20028;-78
2021/09/24 10:46:35;;;;;;;7.53;3.90;;;20.30;94.20;;;;;;5038128;28;20033;-77
2021/09/24 10:49:16;;;;;;;7.32;4.20;;;20.20;97.90;;;;;;5044748;28;20018;-81
2021/09/24 10:51:57;;;;;;;7.80;4.03;;;20.10;94.50;;;;;;5047165;28;20018;-76
2021/09/24 10:54:25;;;;;;;7.13;3.75;;;;;;;;;;5037231;28;20029;-76
2021/09/24 10:57:02;;;;;;;7.05;4.07;;;20.50;93.80;;;;;;5039240;28;20485;-78
2021/09/24 10:59:35;;;;;;;6.72;3.92;;;20.50;93.50;;;;;;5046059;28;20039;-77
2021/09/24 11:02:38;;;;;;;7.35;3.83;;;20.50;93.40;;;;;;5044935;28;20519;-78
2021/09/24 11:05:05;;;;;;;8.20;4.22;;;;;;;;;;5040276;28;20040;-79
2021/09/24 11:07:32;;;;;;;6.30;3.90;;;20.40;93.30;;;;;;5050030;28;20025;-76
2021/09/24 11:09:59;;;;;;;7.13;3.83;;;;;;;;;;5035835;28;20022;-77
2021/09/24 11:12:25;;;;;;;7.35;3.75;;;;;;;;;;5039562;28;20504;-77
2021/09/24 11:15:12;;;;;;;6.38;3.78;;;20.40;97.30;;;;;;5036730;28;20021;-79
2021/09/24 11:17:38;;;;;;;11.60;5.18;;;20.20;93.70;;;;;;5038950;28;20486;-78
2021/09/24 11:20:31;;;;;;;8.43;3.80;;;20.20;93.30;;;;;;5037504;28;20336;-78
2021/09/24 11:22:57;;;;;;;5.88;3.35;;;;;;;;;;5037425;28;20021;-78
2021/09/24 11:25:23;;;;;;;7.38;3.90;;;;;;;;;;5039076;28;20021;-76
2021/09/24 11:27:50;;;;;;;5.78;3.58;;;;;;;;;;5045273;28;20555;-77
2021/09/24 11:30:24;;;;;;;4.93;3.20;;;20.50;92.70;;;;;;5039673;28;20056;-78
2021/09/24 11:32:53;;;;;;;6.22;3.35;;;20.70;92.60;;;;;;5038882;28;20080;-79
2021/09/24 11:35:41;;;;;;;4.97;3.00;;;20.80;96.50;;;;;;5042996;28;20398;-77
2021/09/24 11:38:16;;;;;;;5.88;3.00;;;21.10;95.90;;;;;;5039949;28;20093;-79
2021/09/24 11:40:52;;;;;;;6.35;2.97;;;21.30;90.80;;;;;;5038944;28;20380;-76
2021/09/24 11:43:38;;;;;;;4.53;3.10;;;21.50;90.70;;;;;;5041426;28;20075;-78
2021/09/24 11:46:18;;;;;;;5.75;3.35;;;21.60;90.80;;;;;;5043536;28;20098;-78
2021/09/24 11:48:44;;;;;;;5.85;3.30;;;;;;;;;;5045299;28;20017;-77
2021/09/24 11:51:17;;;;;;;8.18;3.78;;;21.80;90.50;;;;;;5048080;28;20099;-78
2021/09/24 11:53:58;;;;;;;5.68;3.30;;;22.00;92.00;;;;;;5046122;28;20037;-77
2021/09/24 11:56:38;;;;;;;5.70;3.35;;;21.90;90.10;;;;;;5034929;28;20026;-77
2021/09/24 11:59:04;;;;;;;7.18;3.33;;;;;;;;;;5042162;28;20490;-76
2021/09/24 12:01:30;;;;;;;5.65;3.22;;;;;;;;;;5038140;28;20029;-78
2021/09/24 12:03:57;;;;;;;6.25;3.28;;;22.10;88.70;;;;;;5038441;28;20537;-77
2021/09/24 12:06:23;;;;;;;6.25;3.13;;;;;;;;;;5041376;28;20111;-78
2021/09/24 12:08:50;;;;;;;5.93;3.05;;;;;;;;;;5041188;28;20104;-80
2021/09/24 12:11:16;;;;;;;6.95;4.22;;;;;;;;;;5035852;28;20314;-78
2021/09/24 12:13:42;;;;;;;6.22;2.92;;;;;;;;;;5037554;28;20021;-77
2021/09/24 12:16:11;;;;;;;5.10;2.75;;;21.90;87.60;;;;;;5036113;28;20025;-77
2021/09/24 12:19:03;;;;;;;5.18;3.22;;;22.20;93.20;;;;;;5046520;28;20502;-78
2021/09/24 12:21:40;;;;;;;3.85;2.58;;;;;;;;;;5042748;28;20062;-76
2021/09/24 12:24:06;;;;;;;4.75;2.70;;;22.50;86.60;;;;;;5040416;28;20056;-77
2021/09/24 12:26:34;;;;;;;6.07;2.65;;;22.70;86.10;;;;;;5047570;28;20105;-77
2021/09/24 12:29:10;;;;;;;7.32;2.90;;;22.80;85.30;;;;;;5038686;28;20052;-76
2021/09/24 12:31:36;;;;;;;5.00;2.90;;;;;;;;;;5042395;28;20239;-75
2021/09/24 12:34:02;;;;;;;6.80;3.03;;;;;;;;;;5034113;28;20525;-76
2021/09/24 12:36:28;;;;;;;4.90;3.72;;;;;;;;;;5037691;28;20025;-77
2021/09/24 12:39:14;;;;;;;6.57;2.67;;;23.10;84.70;;;;;;5046991;28;20082;-76
2021/09/24 12:41:40;;;;;;;6.38;2.85;;;;;;;;;;5036329;28;20029;-77
2021/09/24 12:44:06;;;;;;;3.65;2.42;;;;;;;;;;5036488;28;20025;-76
2021/09/24 12:46:50;;;;;;;5.07;2.42;;;22.90;83.20;;;;;;5035479;28;20045;-78
2021/09/24 12:49:17;;;;;;;4.05;2.40;;;22.90;83.80;;;;;;5040907;28;20029;-79
2021/09/24 12:51:43;;;;;;;3.53;2.33;;;;;;;;;;5048104;28;20047;-78
2021/09/24 12:54:10;;;;;;;6.18;2.80;;;;;;;;;;5039523;28;20025;-77
2021/09/24 12:56:36;;;;;;;5.78;2.97;;;;;;;;;;5041518;28;20021;-77
2021/09/24 12:59:03;;;;;;;4.82;2.55;;;22.80;83.20;;;;;;5042004;28;20036;-76
2021/09/24 13:01:30;;;;;;;3.95;2.50;;;22.70;83.90;;;;;;5035636;28;20474;-77
2021/09/24 13:03:56;;;;;;;3.47;2.60;;;22.80;84.40;;;;;;5044094;28;20502;-79
2021/09/24 13:06:28;;;;;;;3.85;2.38;;;22.90;83.90;;;;;;5040829;28;20035;-77
2021/09/24 13:08:55;;;;;;;3.22;2.30;;;22.90;83.30;;;;;;5045186;28;20021;-78
2021/09/24 13:11:30;;;;;;;6.28;2.53;;;23.00;83.50;;;;;;5047837;28;20411;-77
2021/09/24 13:13:58;;;;;;;4.65;2.50;;;23.00;83.40;;;;;;5054709;28;20033;-80
2021/09/24 13:16:25;;;;;;;4.78;2.55;;;23.00;83.40;;;;;;5045570;28;20490;-77
2021/09/24 13:18:53;;;;;;;3.92;2.60;;;23.00;82.60;;;;;;5045964;28;20024;-79
2021/09/24 13:21:21;;;;;;;6.05;2.35;;;;;;;;;;5045047;28;20079;-78
2021/09/24 13:23:48;;;;;;;7.07;3.20;;;22.90;83.80;;;;;;5049297;28;20033;-77
2021/09/24 13:26:15;;;;;;;3.67;2.63;;;;;;;;;;5050560;28;20040;-78
2021/09/24 13:28:42;;;;;;;4.32;2.40;;;22.90;83.00;;;;;;5043052;28;20033;-76
2021/09/24 13:31:08;;;;;;;4.15;2.58;;;;;;;;;;5051224;28;20021;-79
2021/09/24 13:33:34;;;;;;;3.40;2.10;;;23.00;82.70;;;;;;5050483;28;20024;-78
2021/09/24 13:36:01;;;;;;;4.53;2.90;;;;;;;;;;5039171;28;20037;-76
2021/09/24 13:38:27;;;;;;;4.05;2.53;;;;;;;;;;5048494;28;20025;-76
2021/09/24 13:40:52;;;;;;;4.45;3.20;;;;;;;;;;5045273;28;20505;-76
2021/09/24 13:43:19;;;;;;;5.55;2.92;;;;;;;;;;5048092;28;20033;-77
2021/09/24 13:45:45;;;;;;;5.95;2.50;;;;;;;;;;5043514;28;20040;-77
2021/09/24 13:48:11;;;;;;;3.70;2.35;;;;;;;;;;5047403;28;20060;-77
2021/09/24 13:50:37;;;;;;;4.80;2.35;;;;;;;;;;5041337;28;20502;-77
2021/09/24 13:53:06;;;;;;;4.22;2.00;;;;;;;;;;5048939;28;20033;-77
2021/09/24 13:55:32;;;;;;;3.83;2.42;;;;;;;;;;5045644;28;20116;-77
2021/09/24 13:57:58;;;;;;;3.92;2.47;;;;;;;;;;5044276;28;20398;-79
2021/09/24 14:00:24;;;;;;;4.03;2.35;;;;;;;;;;5050312;28;20036;-78
2021/09/24 14:02:50;;;;;;;6.53;3.20;;;23.80;78.30;;;;;;5041784;28;20040;-76